createdAt,value
2022-11-05T00:03:44.270Z,2.65
2022-11-05T00:09:01.380Z,2.13
2022-11-05T00:14:23.669Z,2.13
2022-11-05T00:19:27.006Z,1.70
2022-11-05T00:24:47.583Z,1.75
2022-11-05T00:29:52.620Z,1.88
2022-11-05T00:39:59.169Z,1.67
2022-11-05T00:45:03.818Z,1.50
2022-11-05T00:50:10.929Z,1.50
2022-11-05T00:55:14.442Z,1.50
2022-11-05T01:00:19.643Z,1.50
2022-11-05T01:05:23.077Z,1.33
2022-11-05T01:10:26.715Z,1.55
2022-11-05T01:15:31.501Z,1.50
2022-11-05T01:20:35.073Z,1.55
2022-11-05T01:25:38.374Z,1.60
2022-11-05T01:30:43.159Z,2.03
2022-11-05T01:35:46.410Z,1.50
2022-11-05T01:40:49.755Z,1.65
2022-11-05T01:45:58.890Z,1.83
2022-11-05T01:51:05.334Z,1.83
2022-11-05T01:56:12.353Z,1.60
2022-11-05T02:01:17.328Z,1.65
2022-11-05T02:06:21.276Z,1.85
2022-11-05T02:11:24.716Z,1.63
2022-11-05T02:16:40.023Z,2.00
2022-11-05T02:22:26.205Z,1.50
2022-11-05T02:28:00.377Z,1.42
2022-11-05T02:33:28.524Z,1.52
2022-11-05T02:38:40.908Z,1.77
2022-11-05T02:43:55.804Z,1.77
2022-11-05T02:49:10.183Z,2.08
2022-11-05T02:54:18.525Z,1.90
2022-11-05T02:59:22.044Z,2.00
2022-11-05T03:04:27.689Z,1.75
2022-11-05T03:10:17.716Z,1.80
2022-11-05T03:15:31.631Z,2.08
2022-11-05T03:20:41.022Z,2.00
2022-11-05T03:25:50.805Z,1.90
2022-11-05T03:30:58.074Z,1.98
2022-11-05T03:36:07.271Z,1.63
2022-11-05T03:41:15.731Z,2.17
2022-11-05T03:46:23.987Z,2.20
2022-11-05T03:51:38.025Z,2.25
2022-11-05T03:56:46.810Z,2.25
2022-11-05T04:01:51.482Z,1.83
2022-11-05T04:07:13.539Z,2.10
2022-11-05T04:12:46.006Z,2.25
2022-11-05T04:17:49.443Z,2.00
2022-11-05T04:23:17.489Z,2.17
2022-11-05T04:28:20.977Z,2.00
2022-11-05T04:33:24.347Z,2.10
2022-11-05T04:38:29.004Z,1.83
2022-11-05T04:43:32.222Z,2.38
2022-11-05T04:48:35.624Z,2.28
2022-11-05T04:53:40.290Z,2.10
2022-11-05T05:03:48.530Z,1.90
2022-11-05T05:08:53.249Z,1.85
2022-11-05T05:13:56.603Z,1.63
2022-11-05T05:19:00.020Z,1.80
2022-11-05T05:24:05.140Z,1.63
2022-11-05T05:29:09.110Z,1.70
2022-11-05T05:34:13.925Z,1.73
2022-11-05T05:44:21.965Z,1.75
2022-11-05T05:49:25.236Z,1.67
2022-11-05T05:54:32.913Z,1.33
2022-11-05T05:59:37.601Z,1.45
2022-11-05T06:04:40.864Z,1.77
2022-11-05T06:09:45.728Z,1.90
2022-11-05T06:14:49.277Z,1.52
2022-11-05T06:19:52.791Z,1.50
2022-11-05T06:24:57.561Z,1.70
2022-11-05T06:30:00.975Z,1.70
2022-11-05T06:35:04.398Z,1.70
2022-11-05T06:40:10.505Z,1.65
2022-11-05T06:45:13.724Z,2.00
2022-11-05T06:50:17.255Z,1.63
2022-11-05T06:55:21.984Z,1.40
2022-11-05T07:00:25.796Z,1.50
2022-11-05T07:05:29.053Z,1.83
2022-11-05T07:10:34.168Z,1.50
2022-11-05T07:15:38.613Z,4.50
2022-11-05T07:20:42.069Z,1.98
2022-11-05T07:25:46.885Z,1.45
2022-11-05T07:30:50.148Z,1.95
2022-11-05T07:35:53.433Z,1.70
2022-11-05T07:41:00.617Z,1.67
2022-11-05T07:46:03.926Z,1.80
2022-11-05T07:51:07.339Z,2.00
2022-11-05T07:56:12.416Z,2.40
2022-11-05T08:01:15.816Z,2.50
2022-11-05T08:06:19.251Z,2.47
2022-11-05T08:11:24.254Z,2.38
2022-11-05T08:21:31.292Z,2.15
2022-11-05T08:26:36.054Z,2.33
2022-11-05T08:31:39.460Z,2.20
2022-11-05T08:36:46.620Z,2.67
2022-11-05T08:41:51.442Z,2.22
2022-11-05T08:46:56.646Z,2.58
2022-11-05T08:51:59.997Z,2.40
2022-11-05T08:57:04.806Z,2.95
2022-11-05T09:02:08.713Z,3.20
2022-11-05T09:07:12.337Z,3.50
2022-11-05T09:12:17.234Z,3.92
2022-11-05T09:22:25.391Z,3.00
2022-11-05T09:27:29.992Z,2.60
2022-11-05T09:32:33.383Z,2.97
2022-11-05T09:37:37.377Z,2.97
2022-11-05T09:42:47.152Z,3.43
2022-11-05T09:47:54.979Z,2.83
2022-11-05T09:52:59.208Z,3.00
2022-11-05T09:58:08.085Z,3.00
2022-11-05T10:03:17.271Z,3.42
2022-11-05T10:08:24.579Z,3.17
2022-11-05T10:13:38.272Z,4.88
2022-11-05T10:18:44.680Z,2.97
2022-11-05T10:23:48.921Z,3.95
2022-11-05T10:28:54.657Z,3.33
2022-11-05T10:34:02.372Z,3.55
2022-11-05T10:39:12.944Z,3.85
2022-11-05T10:44:29.726Z,3.72
2022-11-05T10:49:48.465Z,3.70
2022-11-05T10:54:56.486Z,3.60
2022-11-05T11:00:26.431Z,3.42
2022-11-05T11:05:33.963Z,3.33
2022-11-05T11:10:42.350Z,3.63
2022-11-05T11:15:47.452Z,3.78
2022-11-05T11:20:50.873Z,4.50
2022-11-05T11:26:02.923Z,3.83
2022-11-05T11:31:12.044Z,4.30
2022-11-05T11:36:19.776Z,3.78
2022-11-05T11:41:27.067Z,4.30
2022-11-05T11:46:36.305Z,3.90
2022-11-05T11:51:49.654Z,3.85
2022-11-05T11:56:53.493Z,4.25
2022-11-05T12:02:44.258Z,3.78
2022-11-05T12:07:53.261Z,4.18
2022-11-05T12:13:27.365Z,3.70
2022-11-05T12:18:44.159Z,3.70
2022-11-05T12:24:15.837Z,4.25
2022-11-05T12:29:36.134Z,4.53
2022-11-05T12:34:49.881Z,4.57
2022-11-05T12:40:04.548Z,4.35
2022-11-05T12:45:28.668Z,4.13
2022-11-05T12:50:41.250Z,4.82
2022-11-05T12:55:49.733Z,5.40
2022-11-05T13:00:58.540Z,4.57
2022-11-05T13:06:09.007Z,5.20
2022-11-05T13:11:21.148Z,4.88
2022-11-05T13:16:31.079Z,5.45
2022-11-05T13:21:37.434Z,4.88
2022-11-05T13:26:48.462Z,5.00
2022-11-05T13:31:57.889Z,5.60
2022-11-05T13:37:23.001Z,5.30
2022-11-05T13:42:46.033Z,6.22
2022-11-05T13:48:19.654Z,7.13
2022-11-05T13:53:47.645Z,6.63
2022-11-05T13:59:21.175Z,6.88
2022-11-05T14:04:32.243Z,7.90
2022-11-05T14:09:38.985Z,7.95
2022-11-05T14:14:47.164Z,6.50
2022-11-05T14:19:53.362Z,6.65
2022-11-05T14:24:58.273Z,6.30
2022-11-05T14:35:35.884Z,5.82
2022-11-05T14:40:42.463Z,6.53
2022-11-05T14:45:55.796Z,6.03
2022-11-05T14:51:00.500Z,5.80
2022-11-05T14:56:08.495Z,5.88
2022-11-05T15:01:49.773Z,6.05
2022-11-05T15:07:28.686Z,6.82
2022-11-05T15:12:38.561Z,7.03
2022-11-05T15:17:51.308Z,7.00
2022-11-05T15:23:00.187Z,7.05
2022-11-05T15:28:12.061Z,7.03
2022-11-05T15:33:22.322Z,7.22
2022-11-05T15:38:35.127Z,6.90
2022-11-05T15:43:47.958Z,8.00
2022-11-05T15:48:54.451Z,8.15
2022-11-05T15:59:27.197Z,8.43
2022-11-05T16:04:32.613Z,9.68
2022-11-05T16:09:40.087Z,9.48
2022-11-05T16:14:45.391Z,10.02
2022-11-05T16:19:49.926Z,11.32
2022-11-05T16:24:53.987Z,11.02
2022-11-05T16:29:59.065Z,10.77
2022-11-05T16:35:05.424Z,11.43
2022-11-05T16:40:15.495Z,11.75
2022-11-05T16:45:23.067Z,11.90
2022-11-05T16:50:31.782Z,11.30
2022-11-05T16:55:37.650Z,10.98
2022-11-05T17:00:42.448Z,10.95
2022-11-05T17:10:48.881Z,12.38
2022-11-05T17:15:54.836Z,12.20
2022-11-05T17:20:58.399Z,12.05
2022-11-05T17:26:03.793Z,12.30
2022-11-05T17:31:10.256Z,11.20
2022-11-05T17:36:16.195Z,11.02
2022-11-05T17:41:22.436Z,11.18
2022-11-05T17:46:27.192Z,11.07
2022-11-05T17:51:30.657Z,10.80
2022-11-05T17:56:40.283Z,12.40
2022-11-05T18:01:48.900Z,12.15
2022-11-05T18:06:52.290Z,13.45
2022-11-05T18:11:55.747Z,13.00
2022-11-05T18:17:00.933Z,12.82
2022-11-05T18:22:04.386Z,14.43
2022-11-05T18:27:09.344Z,13.23
2022-11-05T18:32:14.204Z,13.80
2022-11-05T18:42:20.720Z,12.15
2022-11-05T18:47:25.685Z,12.93
2022-11-05T18:52:31.645Z,12.43
2022-11-05T18:57:35.621Z,12.45
2022-11-05T19:02:40.728Z,12.20
2022-11-05T19:07:44.330Z,11.93
2022-11-05T19:12:47.613Z,11.45
2022-11-05T19:17:53.001Z,12.27
2022-11-05T19:22:56.281Z,10.98
2022-11-05T19:27:59.592Z,11.90
2022-11-05T19:33:04.858Z,11.13
2022-11-05T19:38:08.322Z,11.15
2022-11-05T19:43:11.846Z,10.80
2022-11-05T19:48:21.140Z,9.52
2022-11-05T19:53:24.706Z,10.38
2022-11-05T19:58:27.959Z,10.05
2022-11-05T20:03:33.952Z,8.95
2022-11-05T20:08:59.373Z,9.93
2022-11-05T20:14:01.719Z,9.70
2022-11-05T20:19:09.056Z,11.65
2022-11-05T20:24:17.419Z,10.57
2022-11-05T20:29:34.764Z,11.65
2022-11-05T20:34:40.282Z,11.52
2022-11-05T20:39:46.545Z,10.27
2022-11-05T20:44:50.722Z,10.18
2022-11-05T20:49:55.675Z,9.88
2022-11-05T20:54:59.046Z,10.05
2022-11-05T21:00:02.624Z,10.13
2022-11-05T21:05:09.612Z,10.07
2022-11-05T21:10:12.981Z,10.45
2022-11-05T21:15:20.321Z,10.20
2022-11-05T21:20:25.892Z,10.90
2022-11-05T21:25:29.349Z,11.57
2022-11-05T21:30:33.020Z,10.90
2022-11-05T21:35:41.202Z,11.02
2022-11-05T21:40:45.224Z,12.38
2022-11-05T21:45:48.654Z,12.38
2022-11-05T21:51:12.170Z,12.07
2022-11-05T21:56:37.489Z,11.40
2022-11-05T22:01:40.969Z,12.55
2022-11-05T22:06:45.806Z,13.18
2022-11-05T22:11:49.114Z,12.90
2022-11-05T22:16:52.526Z,12.23
2022-11-05T22:21:57.284Z,12.85
2022-11-05T22:32:03.951Z,13.65
2022-11-05T22:37:09.214Z,14.00
2022-11-05T22:42:12.763Z,12.60
2022-11-05T22:47:18.190Z,11.57
2022-11-05T22:52:22.823Z,11.70
2022-11-05T22:57:26.097Z,11.90
2022-11-05T23:02:29.578Z,10.43
2022-11-05T23:07:51.665Z,9.70
2022-11-05T23:12:56.076Z,8.60
2022-11-05T23:18:17.189Z,7.90
2022-11-05T23:23:39.158Z,7.70
2022-11-05T23:28:42.396Z,7.90
2022-11-05T23:33:45.859Z,7.43
2022-11-05T23:38:50.454Z,7.75
2022-11-05T23:44:11.369Z,7.25
2022-11-05T23:49:14.849Z,7.15
2022-11-05T23:54:19.683Z,5.88
